FWV30PU KLAX-EDDM
Flight info
| Callsign | FWV30PU |
|---|---|
| Flight time | N/A |
| Altitude | 33000 |
| Route | OSHNN1 BEALE J146 DICEE DCT KD45Q DCT KD54U DCT KD69A/N0473F350 DCT KP75C DCT KP81E DCT KP87G DCT KP12M DCT VETRO DCT 5330N07000W DCT DORYY/M081F370 NATT KESIX/N0464F370 DCT APSOV DCT PEPOD/N0463F390 DCT MAKUX DCT SOSIM L15 GIGTO UQ4 WAL M16 DOLAS DCT NAVPI DCT DOJOH DCT DODEN/N0456F330 DCT TABUM DCT BOMBI T104 HAREM/N0420F270 T104 ROKIL ROKIL1A |
| Aircraft | A346/H-SDE2E3FGHIJ3J4J5M1RWXY/LB1D1 |
Departure
| Time | N/A |
|---|---|
| Airport | Los Angeles International Airport (KLAX) |
Arrival
| Time | 2026-05-01 09:16 |
|---|---|
| Airport | Munich Airport (EDDM) |
| Time | Latitude | Longitude | Altitude | Speed | Heading |
|---|---|---|---|---|---|
| 2026-05-01 08:13 | 52.40365 | 3.29021 | 39288 ft | 458 kts | 119° |
| 2026-05-01 08:14 | 52.37406 | 3.38214 | 39292 ft | 457 kts | 120° |
| 2026-05-01 08:14 | 52.34447 | 3.47373 | 39291 ft | 458 kts | 119° |
| 2026-05-01 08:15 | 52.29979 | 3.61131 | 39293 ft | 458 kts | 118° |
| 2026-05-01 08:16 | 52.26971 | 3.70360 | 39290 ft | 458 kts | 119° |
| 2026-05-01 08:16 | 52.23978 | 3.79495 | 39296 ft | 458 kts | 119° |
| 2026-05-01 08:17 | 52.20952 | 3.88703 | 39295 ft | 458 kts | 119° |
| 2026-05-01 08:17 | 52.17929 | 3.97869 | 39293 ft | 459 kts | 118° |
| 2026-05-01 08:18 | 52.14884 | 4.07061 | 39296 ft | 460 kts | 118° |
| 2026-05-01 08:19 | 52.08787 | 4.25388 | 39302 ft | 460 kts | 118° |
| 2026-05-01 08:19 | 52.05720 | 4.34558 | 39305 ft | 459 kts | 119° |
| 2026-05-01 08:20 | 52.02673 | 4.43625 | 39291 ft | 459 kts | 119° |
| 2026-05-01 08:20 | 51.99598 | 4.52745 | 39291 ft | 459 kts | 119° |
| 2026-05-01 08:21 | 51.96515 | 4.61856 | 39295 ft | 459 kts | 119° |
| 2026-05-01 08:21 | 51.93423 | 4.70962 | 39304 ft | 460 kts | 119° |
| 2026-05-01 08:22 | 51.90329 | 4.80038 | 39305 ft | 460 kts | 119° |
| 2026-05-01 08:22 | 51.87210 | 4.89144 | 39302 ft | 460 kts | 119° |
| 2026-05-01 08:23 | 51.84118 | 4.98152 | 39302 ft | 460 kts | 119° |
| 2026-05-01 08:23 | 51.80985 | 5.07245 | 39304 ft | 460 kts | 119° |
| 2026-05-01 08:24 | 51.77852 | 5.16308 | 39303 ft | 460 kts | 120° |
| 2026-05-01 08:24 | 51.74720 | 5.25330 | 39307 ft | 460 kts | 119° |
| 2026-05-01 08:25 | 51.71582 | 5.34336 | 39312 ft | 460 kts | 119° |
| 2026-05-01 08:25 | 51.68435 | 5.43334 | 39321 ft | 460 kts | 119° |
| 2026-05-01 08:26 | 51.65281 | 5.52322 | 39321 ft | 460 kts | 119° |
| 2026-05-01 08:26 | 51.62133 | 5.61266 | 39325 ft | 460 kts | 120° |
| 2026-05-01 08:27 | 51.58965 | 5.70231 | 39318 ft | 460 kts | 120° |
| 2026-05-01 08:27 | 51.55787 | 5.79192 | 39319 ft | 460 kts | 120° |
| 2026-05-01 08:28 | 51.52601 | 5.88141 | 39323 ft | 461 kts | 120° |
| 2026-05-01 08:28 | 51.49431 | 5.97019 | 39343 ft | 461 kts | 120° |
| 2026-05-01 08:29 | 51.46232 | 6.05949 | 39343 ft | 461 kts | 120° |
| 2026-05-01 08:29 | 51.43021 | 6.14875 | 39342 ft | 461 kts | 120° |
| 2026-05-01 08:30 | 51.39808 | 6.23779 | 39343 ft | 461 kts | 120° |
| 2026-05-01 08:30 | 51.36586 | 6.32670 | 39342 ft | 461 kts | 120° |
| 2026-05-01 08:31 | 51.33338 | 6.41605 | 39340 ft | 462 kts | 120° |
| 2026-05-01 08:31 | 51.30100 | 6.50490 | 39346 ft | 462 kts | 120° |
| 2026-05-01 08:32 | 51.26876 | 6.59297 | 39345 ft | 462 kts | 120° |
| 2026-05-01 08:32 | 51.23624 | 6.68151 | 39344 ft | 462 kts | 120° |
| 2026-05-01 08:33 | 51.20334 | 6.77071 | 39344 ft | 463 kts | 120° |
| 2026-05-01 08:33 | 51.17072 | 6.85891 | 39346 ft | 463 kts | 120° |
| 2026-05-01 08:34 | 51.13783 | 6.94760 | 39345 ft | 462 kts | 120° |
| 2026-05-01 08:34 | 51.10493 | 7.03584 | 39355 ft | 463 kts | 120° |
| 2026-05-01 08:35 | 51.07187 | 7.12436 | 39364 ft | 463 kts | 120° |
| 2026-05-01 08:35 | 51.03880 | 7.21256 | 39370 ft | 465 kts | 120° |
| 2026-05-01 08:36 | 51.00557 | 7.30092 | 39369 ft | 465 kts | 120° |
| 2026-05-01 08:36 | 50.97228 | 7.38912 | 39371 ft | 465 kts | 120° |
| 2026-05-01 08:37 | 50.93884 | 7.47734 | 39375 ft | 465 kts | 120° |
| 2026-05-01 08:37 | 50.90547 | 7.56520 | 39377 ft | 465 kts | 120° |
| 2026-05-01 08:38 | 50.87179 | 7.65296 | 39369 ft | 468 kts | 121° |
| 2026-05-01 08:38 | 50.83384 | 7.73738 | 39377 ft | 469 kts | 128° |
| 2026-05-01 08:39 | 50.79017 | 7.81412 | 39372 ft | 468 kts | 135° |
| 2026-05-01 08:39 | 50.74259 | 7.88501 | 39373 ft | 469 kts | 136° |
| 2026-05-01 08:40 | 50.67117 | 7.99100 | 39376 ft | 471 kts | 135° |
| 2026-05-01 08:40 | 50.62299 | 8.06131 | 39395 ft | 472 kts | 138° |
| 2026-05-01 08:41 | 50.57063 | 8.12488 | 39395 ft | 469 kts | 145° |
| 2026-05-01 08:41 | 50.51576 | 8.18018 | 39392 ft | 469 kts | 147° |
| 2026-05-01 08:42 | 50.46068 | 8.23529 | 39394 ft | 469 kts | 147° |
| 2026-05-01 08:42 | 50.40550 | 8.29052 | 39390 ft | 472 kts | 146° |
| 2026-05-01 08:43 | 50.34969 | 8.34636 | 39404 ft | 472 kts | 146° |
| 2026-05-01 08:43 | 50.29609 | 8.40756 | 39396 ft | 469 kts | 139° |
| 2026-05-01 08:44 | 50.24810 | 8.47657 | 39399 ft | 469 kts | 133° |
| 2026-05-01 08:44 | 50.20376 | 8.55173 | 39395 ft | 470 kts | 131° |
| 2026-05-01 08:45 | 50.15941 | 8.62716 | 39398 ft | 469 kts | 131° |
| 2026-05-01 08:45 | 50.12248 | 8.68950 | 39402 ft | 468 kts | 131° |
| 2026-05-01 08:46 | 50.07793 | 8.76420 | 39402 ft | 469 kts | 131° |
| 2026-05-01 08:46 | 50.03172 | 8.83547 | 39396 ft | 469 kts | 136° |
| 2026-05-01 08:47 | 49.98363 | 8.90344 | 39394 ft | 468 kts | 136° |
| 2026-05-01 08:47 | 49.93508 | 8.97188 | 39392 ft | 468 kts | 136° |
| 2026-05-01 08:48 | 49.88673 | 9.03993 | 39368 ft | 468 kts | 136° |
| 2026-05-01 08:48 | 49.83852 | 9.10751 | 39374 ft | 470 kts | 136° |
| 2026-05-01 08:49 | 49.81432 | 9.14139 | 39208 ft | 471 kts | 136° |
| 2026-05-01 08:49 | 49.78993 | 9.17546 | 38903 ft | 470 kts | 136° |
| 2026-05-01 08:49 | 49.76548 | 9.20958 | 38517 ft | 471 kts | 136° |
| 2026-05-01 08:49 | 49.74100 | 9.24378 | 38034 ft | 472 kts | 136° |
| 2026-05-01 08:50 | 49.71661 | 9.27782 | 37523 ft | 472 kts | 136° |
| 2026-05-01 08:50 | 49.69202 | 9.31203 | 36997 ft | 473 kts | 136° |
| 2026-05-01 08:50 | 49.66783 | 9.34558 | 36491 ft | 474 kts | 136° |
| 2026-05-01 08:50 | 49.64311 | 9.37990 | 36003 ft | 475 kts | 136° |
| 2026-05-01 08:51 | 49.61921 | 9.41496 | 35517 ft | 475 kts | 133° |
| 2026-05-01 08:51 | 49.59643 | 9.45222 | 35063 ft | 475 kts | 129° |
| 2026-05-01 08:51 | 49.57457 | 9.49056 | 34597 ft | 475 kts | 129° |
| 2026-05-01 08:51 | 49.55284 | 9.52881 | 34105 ft | 472 kts | 129° |
| 2026-05-01 08:52 | 49.53132 | 9.56667 | 33552 ft | 468 kts | 129° |
| 2026-05-01 08:52 | 49.50998 | 9.60414 | 32973 ft | 458 kts | 129° |
| 2026-05-01 08:52 | 49.48921 | 9.64046 | 32448 ft | 444 kts | 129° |
| 2026-05-01 08:52 | 49.46903 | 9.67570 | 31969 ft | 436 kts | 129° |
| 2026-05-01 08:53 | 49.44858 | 9.71140 | 31630 ft | 435 kts | 129° |
| 2026-05-01 08:53 | 49.42863 | 9.74617 | 31219 ft | 432 kts | 129° |
| 2026-05-01 08:53 | 49.40882 | 9.78060 | 30833 ft | 428 kts | 129° |
| 2026-05-01 08:53 | 49.38939 | 9.81434 | 30443 ft | 424 kts | 129° |
| 2026-05-01 08:54 | 49.36965 | 9.84853 | 30006 ft | 421 kts | 129° |
| 2026-05-01 08:54 | 49.35022 | 9.88205 | 29542 ft | 419 kts | 129° |
| 2026-05-01 08:54 | 49.33112 | 9.91500 | 29107 ft | 416 kts | 129° |
| 2026-05-01 08:54 | 49.31197 | 9.94801 | 28660 ft | 412 kts | 129° |
| 2026-05-01 08:55 | 49.29282 | 9.98094 | 28220 ft | 410 kts | 129° |
| 2026-05-01 08:55 | 49.27391 | 10.01347 | 27804 ft | 407 kts | 129° |
| 2026-05-01 08:55 | 49.25515 | 10.04567 | 27380 ft | 404 kts | 129° |
| 2026-05-01 08:55 | 49.23633 | 10.07795 | 26972 ft | 401 kts | 129° |
| 2026-05-01 08:56 | 49.21779 | 10.10972 | 26551 ft | 398 kts | 129° |
| 2026-05-01 08:56 | 49.19941 | 10.14113 | 26141 ft | 395 kts | 129° |
| 2026-05-01 08:56 | 49.18091 | 10.17279 | 25750 ft | 392 kts | 129° |
| 2026-05-01 08:56 | 49.16277 | 10.20379 | 25429 ft | 388 kts | 129° |
| 2026-05-01 08:57 | 49.14475 | 10.23449 | 25394 ft | 388 kts | 129° |
| 2026-05-01 08:57 | 49.12679 | 10.26429 | 25277 ft | 383 kts | 130° |
| 2026-05-01 08:57 | 49.10829 | 10.29404 | 24827 ft | 382 kts | 130° |
| 2026-05-01 08:57 | 49.08994 | 10.32340 | 24389 ft | 381 kts | 130° |
| 2026-05-01 08:58 | 49.07168 | 10.35261 | 24007 ft | 378 kts | 130° |
| 2026-05-01 08:58 | 49.05354 | 10.38168 | 23547 ft | 376 kts | 130° |
| 2026-05-01 08:58 | 49.03556 | 10.41048 | 23071 ft | 373 kts | 130° |
| 2026-05-01 08:58 | 49.01769 | 10.43909 | 22639 ft | 371 kts | 130° |
| 2026-05-01 08:59 | 48.99994 | 10.46746 | 22226 ft | 367 kts | 130° |
| 2026-05-01 08:59 | 48.98233 | 10.49563 | 21803 ft | 364 kts | 130° |
| 2026-05-01 08:59 | 48.96507 | 10.52310 | 21396 ft | 361 kts | 130° |
| 2026-05-01 08:59 | 48.94779 | 10.55070 | 20982 ft | 358 kts | 130° |
| 2026-05-01 09:00 | 48.93039 | 10.57851 | 20572 ft | 355 kts | 130° |
| 2026-05-01 09:00 | 48.91338 | 10.60545 | 20170 ft | 353 kts | 130° |
| 2026-05-01 09:00 | 48.89633 | 10.63232 | 19771 ft | 351 kts | 130° |
| 2026-05-01 09:00 | 48.87942 | 10.65896 | 19375 ft | 348 kts | 130° |
| 2026-05-01 09:01 | 48.86264 | 10.68542 | 18983 ft | 346 kts | 130° |
| 2026-05-01 09:01 | 48.84609 | 10.71152 | 18318 ft | 343 kts | 130° |
| 2026-05-01 09:01 | 48.82951 | 10.73769 | 17519 ft | 338 kts | 130° |
| 2026-05-01 09:01 | 48.81331 | 10.76321 | 16795 ft | 333 kts | 130° |
| 2026-05-01 09:02 | 48.79732 | 10.78839 | 16071 ft | 329 kts | 131° |
| 2026-05-01 09:02 | 48.78149 | 10.81333 | 15313 ft | 326 kts | 131° |
| 2026-05-01 09:02 | 48.76577 | 10.83804 | 14605 ft | 323 kts | 131° |
| 2026-05-01 09:02 | 48.75046 | 10.86208 | 14233 ft | 309 kts | 131° |
| 2026-05-01 09:03 | 48.73580 | 10.88500 | 13836 ft | 296 kts | 131° |
| 2026-05-01 09:03 | 48.72158 | 10.90730 | 13169 ft | 293 kts | 131° |
| 2026-05-01 09:03 | 48.70745 | 10.92947 | 12554 ft | 289 kts | 131° |
| 2026-05-01 09:03 | 48.69365 | 10.95107 | 11930 ft | 286 kts | 131° |
| 2026-05-01 09:04 | 48.67988 | 10.97262 | 11329 ft | 282 kts | 131° |
| 2026-05-01 09:04 | 48.66635 | 10.99378 | 10933 ft | 278 kts | 131° |
| 2026-05-01 09:04 | 48.65279 | 11.01507 | 10682 ft | 281 kts | 132° |
| 2026-05-01 09:04 | 48.63917 | 11.03626 | 10414 ft | 280 kts | 131° |
| 2026-05-01 09:05 | 48.62568 | 11.05732 | 10101 ft | 277 kts | 132° |
| 2026-05-01 09:05 | 48.61225 | 11.07825 | 9776 ft | 277 kts | 132° |
| 2026-05-01 09:05 | 48.59900 | 11.09881 | 9461 ft | 275 kts | 132° |
| 2026-05-01 09:05 | 48.58572 | 11.11938 | 9168 ft | 271 kts | 131° |
| 2026-05-01 09:06 | 48.57255 | 11.13990 | 8856 ft | 271 kts | 132° |
| 2026-05-01 09:06 | 48.55949 | 11.16016 | 8543 ft | 268 kts | 132° |
| 2026-05-01 09:06 | 48.54661 | 11.18016 | 8196 ft | 262 kts | 131° |
| 2026-05-01 09:06 | 48.53413 | 11.19954 | 7825 ft | 251 kts | 132° |
| 2026-05-01 09:07 | 48.52228 | 11.21789 | 7544 ft | 238 kts | 132° |
| 2026-05-01 09:07 | 48.51097 | 11.23538 | 7260 ft | 229 kts | 132° |
| 2026-05-01 09:07 | 48.49984 | 11.25261 | 7064 ft | 230 kts | 133° |
| 2026-05-01 09:07 | 48.48865 | 11.26990 | 6845 ft | 230 kts | 133° |
| 2026-05-01 09:08 | 48.47750 | 11.28705 | 6611 ft | 227 kts | 132° |
| 2026-05-01 09:08 | 48.46652 | 11.30397 | 6350 ft | 224 kts | 132° |
| 2026-05-01 09:08 | 48.45560 | 11.32083 | 6145 ft | 225 kts | 132° |
| 2026-05-01 09:08 | 48.44447 | 11.33796 | 5902 ft | 223 kts | 132° |
| 2026-05-01 09:09 | 48.43381 | 11.35442 | 5629 ft | 222 kts | 132° |
| 2026-05-01 09:09 | 48.42299 | 11.37111 | 5374 ft | 221 kts | 132° |
| 2026-05-01 09:09 | 48.41223 | 11.38769 | 5119 ft | 220 kts | 132° |
| 2026-05-01 09:09 | 48.40148 | 11.40421 | 4903 ft | 219 kts | 132° |
| 2026-05-01 09:10 | 48.39076 | 11.42062 | 4605 ft | 217 kts | 132° |
| 2026-05-01 09:10 | 48.38023 | 11.43675 | 4362 ft | 215 kts | 131° |
| 2026-05-01 09:10 | 48.36997 | 11.45250 | 4094 ft | 207 kts | 132° |
| 2026-05-01 09:10 | 48.36018 | 11.46753 | 3966 ft | 193 kts | 132° |
| 2026-05-01 09:11 | 48.35112 | 11.48137 | 3976 ft | 177 kts | 131° |
| 2026-05-01 09:11 | 48.34463 | 11.49626 | 3956 ft | 171 kts | 105° |
| 2026-05-01 09:11 | 48.34338 | 11.51402 | 3968 ft | 171 kts | 90° |
| 2026-05-01 09:11 | 48.34438 | 11.53190 | 3991 ft | 172 kts | 85° |
| 2026-05-01 09:12 | 48.34600 | 11.54939 | 3978 ft | 170 kts | 84° |
| 2026-05-01 09:12 | 48.34761 | 11.56717 | 3994 ft | 169 kts | 85° |
| 2026-05-01 09:12 | 48.34905 | 11.58477 | 3933 ft | 169 kts | 85° |
| 2026-05-01 09:12 | 48.35041 | 11.60233 | 3708 ft | 164 kts | 85° |
| 2026-05-01 09:13 | 48.35162 | 11.61862 | 3473 ft | 149 kts | 85° |
| 2026-05-01 09:13 | 48.35275 | 11.63395 | 3267 ft | 144 kts | 85° |
| 2026-05-01 09:13 | 48.35384 | 11.64897 | 3103 ft | 144 kts | 84° |
| 2026-05-01 09:13 | 48.35495 | 11.66387 | 2897 ft | 143 kts | 84° |
| 2026-05-01 09:14 | 48.35608 | 11.67892 | 2734 ft | 143 kts | 83° |
| 2026-05-01 09:14 | 48.35729 | 11.69384 | 2498 ft | 143 kts | 83° |
| 2026-05-01 09:14 | 48.35850 | 11.70868 | 2179 ft | 143 kts | 86° |
| 2026-05-01 09:14 | 48.35942 | 11.72362 | 1976 ft | 143 kts | 85° |
| 2026-05-01 09:15 | 48.36061 | 11.73840 | 1842 ft | 142 kts | 84° |
| 2026-05-01 09:15 | 48.36176 | 11.75324 | 1649 ft | 140 kts | 84° |
| 2026-05-01 09:15 | 48.36283 | 11.76772 | 1506 ft | 138 kts | 85° |
| 2026-05-01 09:15 | 48.36381 | 11.78093 | 1458 ft | 106 kts | 83° |
| 2026-05-01 09:16 | 48.36445 | 11.78922 | 1474 ft | 53 kts | 83° |
| 2026-05-01 09:16 | 48.36418 | 11.79370 | 1470 ft | 37 kts | 110° |
| 2026-05-01 09:16 | 48.36346 | 11.79625 | 1464 ft | 16 kts | 114° |
| 2026-05-01 09:17 | 48.36342 | 11.79639 | 1467 ft | 0 kts | 114° |
| 2026-05-01 09:18 | 48.36323 | 11.79704 | 1468 ft | 7 kts | 114° |
| 2026-05-01 09:19 | 48.36265 | 11.79797 | 1465 ft | 2 kts | 197° |
| 2026-05-01 09:19 | 48.36247 | 11.79772 | 1464 ft | 6 kts | 238° |
| 2026-05-01 09:19 | 48.36229 | 11.79668 | 1473 ft | 14 kts | 261° |
| 2026-05-01 09:20 | 48.36196 | 11.79251 | 1476 ft | 23 kts | 263° |
| 2026-05-01 09:20 | 48.36160 | 11.78780 | 1468 ft | 21 kts | 263° |
| 2026-05-01 09:21 | 48.36127 | 11.78340 | 1471 ft | 20 kts | 263° |
| 2026-05-01 09:21 | 48.36109 | 11.78117 | 1475 ft | 21 kts | 263° |
| 2026-05-01 09:21 | 48.36081 | 11.77744 | 1473 ft | 10 kts | 263° |
| 2026-05-01 09:22 | 48.35966 | 11.77671 | 1465 ft | 13 kts | 174° |
| 2026-05-01 09:22 | 48.35807 | 11.77701 | 1465 ft | 10 kts | 173° |
| 2026-05-01 09:23 | 48.35729 | 11.77715 | 1471 ft | 10 kts | 173° |
| 2026-05-01 09:23 | 48.35577 | 11.77740 | 1470 ft | 10 kts | 173° |
| 2026-05-01 09:24 | 48.35424 | 11.77766 | 1465 ft | 9 kts | 173° |
| 2026-05-01 09:24 | 48.35363 | 11.77783 | 1466 ft | 9 kts | 150° |
| 2026-05-01 09:24 | 48.35346 | 11.77983 | 1467 ft | 7 kts | 85° |
| 2026-05-01 09:25 | 48.35353 | 11.78102 | 1469 ft | 6 kts | 86° |
| 2026-05-01 09:25 | 48.35312 | 11.78192 | 1464 ft | 0 kts | 157° |
| 2026-05-01 09:26 | 48.35303 | 11.78197 | 1466 ft | 2 kts | 166° |
| 2026-05-01 09:26 | 48.35278 | 11.78256 | 1465 ft | 6 kts | 101° |
| 2026-05-01 09:26 | 48.35276 | 11.78291 | 1467 ft | 4 kts | 89° |
| 2026-05-01 09:27 | 48.35276 | 11.78297 | 1467 ft | 0 kts | 88° |